createdAt,value
2023-03-11T00:01:48.135Z,96601.22
2023-03-11T00:04:14.546Z,96584.47
2023-03-11T00:06:40.858Z,96559.97
2023-03-11T00:09:07.188Z,96567.75
2023-03-11T00:11:33.547Z,96582.09
2023-03-11T00:13:59.867Z,96586.78
2023-03-11T00:16:26.256Z,96587.94
2023-03-11T00:18:52.750Z,96591.84
2023-03-11T00:21:19.087Z,96593.38
2023-03-11T00:23:45.403Z,96596.47
2023-03-11T00:26:11.887Z,96607.78
2023-03-11T00:28:38.224Z,96604.63
2023-03-11T00:31:04.575Z,96601.91
2023-03-11T00:33:30.947Z,96603.44
2023-03-11T00:35:57.305Z,96607.31
2023-03-11T00:38:23.665Z,96606.13
2023-03-11T00:40:50.110Z,96611.16
2023-03-11T00:43:16.469Z,96625.94
2023-03-11T00:45:42.798Z,96620.47
2023-03-11T00:48:09.155Z,96613.84
2023-03-11T00:50:35.493Z,96619.69
2023-03-11T00:53:01.812Z,96616.91
2023-03-11T00:55:28.186Z,96620.00
2023-03-11T00:57:54.788Z,96630.06
2023-03-11T01:00:23.078Z,96622.72
2023-03-11T01:02:49.498Z,96620.34
2023-03-11T01:05:15.809Z,96619.56
2023-03-11T01:07:42.143Z,96619.91
2023-03-11T01:10:08.560Z,96607.06
2023-03-11T01:12:34.939Z,96619.13
2023-03-11T01:15:01.557Z,96624.53
2023-03-11T01:17:28.135Z,96619.03
2023-03-11T01:19:54.441Z,96622.56
2023-03-11T01:22:21.570Z,96619.78
2023-03-11T01:24:47.934Z,96609.28
2023-03-11T01:27:14.257Z,96618.59
2023-03-11T01:29:40.583Z,96605.34
2023-03-11T01:32:06.976Z,96606.13
2023-03-11T01:34:33.313Z,96615.06
2023-03-11T01:36:59.647Z,96617.38
2023-03-11T01:39:26.012Z,96608.44
2023-03-11T01:41:52.346Z,96613.84
2023-03-11T01:44:18.682Z,96618.88
2023-03-11T01:46:45.099Z,96618.84
2023-03-11T01:49:11.525Z,96618.06
2023-03-11T01:51:38.045Z,96614.94
2023-03-11T01:54:05.525Z,96614.94
2023-03-11T01:56:31.983Z,96609.09
2023-03-11T01:58:58.693Z,96601.72
2023-03-11T02:01:25.681Z,96610.25
2023-03-11T02:03:52.141Z,96611.16
2023-03-11T02:06:18.466Z,96623.22
2023-03-11T02:08:44.961Z,96617.00
2023-03-11T02:11:12.353Z,96638.00
2023-03-11T02:13:38.693Z,96634.56
2023-03-11T02:16:05.248Z,96623.38
2023-03-11T02:18:31.635Z,96616.41
2023-03-11T02:20:57.954Z,96607.03
2023-03-11T02:23:24.336Z,96608.16
2023-03-11T02:25:50.802Z,96607.31
2023-03-11T02:28:17.163Z,96598.72
2023-03-11T02:30:43.541Z,96599.94
2023-03-11T02:33:09.948Z,96592.50
2023-03-11T02:35:36.314Z,96597.13
2023-03-11T02:38:02.710Z,96594.00
2023-03-11T02:40:29.841Z,96591.66
2023-03-11T02:42:56.356Z,96588.50
2023-03-11T02:45:22.918Z,96593.56
2023-03-11T02:47:49.383Z,96601.69
2023-03-11T02:50:15.778Z,96598.59
2023-03-11T02:52:44.043Z,96601.25
2023-03-11T02:55:10.348Z,96601.19
2023-03-11T02:57:36.741Z,96594.97
2023-03-11T03:00:03.266Z,96583.28
2023-03-11T03:02:30.009Z,96587.94
2023-03-11T03:04:56.489Z,96589.09
2023-03-11T03:07:23.162Z,96587.91
2023-03-11T03:09:49.480Z,96590.97
2023-03-11T03:12:15.833Z,96587.03
2023-03-11T03:14:42.301Z,96592.78
2023-03-11T03:17:09.797Z,96589.25
2023-03-11T03:19:36.169Z,96573.66
2023-03-11T03:22:02.770Z,96582.16
2023-03-11T03:24:29.166Z,96577.47
2023-03-11T03:26:55.588Z,96580.56
2023-03-11T03:29:21.987Z,96572.00
2023-03-11T03:31:49.201Z,96566.94
2023-03-11T03:34:15.587Z,96576.59
2023-03-11T03:36:42.009Z,96577.34
2023-03-11T03:39:08.521Z,96581.22
2023-03-11T03:41:36.604Z,96594.38
2023-03-11T03:44:04.350Z,96595.91
2023-03-11T03:46:31.850Z,96591.63
2023-03-11T03:48:59.106Z,96593.56
2023-03-11T03:51:26.768Z,96604.44
2023-03-11T03:54:13.344Z,96595.47
2023-03-11T03:56:39.743Z,96607.47
2023-03-11T03:59:06.410Z,96618.72
2023-03-11T04:01:38.528Z,96619.84
2023-03-11T04:04:04.947Z,96632.22
2023-03-11T04:06:31.363Z,96632.94
2023-03-11T04:09:02.120Z,96651.97
2023-03-11T04:11:31.984Z,96639.94
2023-03-11T04:13:58.945Z,96634.06
2023-03-11T04:16:25.540Z,96633.66
2023-03-11T04:18:58.100Z,96646.03
2023-03-11T04:21:24.500Z,96651.44
2023-03-11T04:23:51.059Z,96643.69
2023-03-11T04:26:20.922Z,96654.13
2023-03-11T04:28:47.296Z,96648.25
2023-03-11T04:31:14.389Z,96653.66
2023-03-11T04:33:41.092Z,96652.44
2023-03-11T04:36:09.340Z,96668.34
2023-03-11T04:38:37.111Z,96672.56
2023-03-11T04:41:04.383Z,96682.22
2023-03-11T04:43:30.748Z,96682.94
2023-03-11T04:45:57.199Z,96683.66
2023-03-11T04:48:23.724Z,96695.59
2023-03-11T04:50:50.053Z,96705.25
2023-03-11T04:53:16.363Z,96712.56
2023-03-11T04:55:42.743Z,96707.84
2023-03-11T04:58:09.090Z,96700.44
2023-03-11T05:00:37.800Z,96707.75
2023-03-11T05:03:08.548Z,96712.28
2023-03-11T05:05:35.330Z,96706.03
2023-03-11T05:08:01.802Z,96714.88
2023-03-11T05:10:31.892Z,96717.88
2023-03-11T05:13:00.668Z,96731.38
2023-03-11T05:15:31.728Z,96723.97
2023-03-11T05:18:00.922Z,96721.22
2023-03-11T05:20:28.388Z,96726.53
2023-03-11T05:22:54.932Z,96729.19
2023-03-11T05:25:21.269Z,96733.78
2023-03-11T05:27:48.418Z,96720.94
2023-03-11T05:30:16.250Z,96740.97
2023-03-11T05:32:44.176Z,96745.13
2023-03-11T05:35:11.570Z,96747.34
2023-03-11T05:37:38.129Z,96751.53
2023-03-11T05:40:05.043Z,96761.88
2023-03-11T05:42:31.372Z,96753.28
2023-03-11T05:44:58.178Z,96759.03
2023-03-11T05:47:25.388Z,96746.53
2023-03-11T05:49:52.241Z,96753.13
2023-03-11T05:52:19.662Z,96758.47
2023-03-11T05:54:46.747Z,96770.00
2023-03-11T05:57:13.098Z,96774.56
2023-03-11T05:59:39.631Z,96779.97
2023-03-11T06:02:05.962Z,96779.97
2023-03-11T06:04:32.427Z,96792.66
2023-03-11T06:07:00.739Z,96796.53
2023-03-11T06:09:29.838Z,96786.03
2023-03-11T06:11:56.257Z,96770.91
2023-03-11T06:14:26.595Z,96784.41
2023-03-11T06:16:53.605Z,96789.63
2023-03-11T06:19:20.493Z,96793.94
2023-03-11T06:21:49.674Z,96796.19
2023-03-11T06:24:17.078Z,96796.91
2023-03-11T06:26:43.896Z,96805.81
2023-03-11T06:29:12.743Z,96806.97
2023-03-11T06:31:39.565Z,96810.78
2023-03-11T06:34:08.520Z,96816.91
2023-03-11T06:36:35.018Z,96819.53
2023-03-11T06:39:01.332Z,96830.72
2023-03-11T06:41:28.564Z,96824.88
2023-03-11T06:43:56.044Z,96838.19
2023-03-11T06:46:22.357Z,96833.16
2023-03-11T06:48:50.426Z,96830.69
2023-03-11T06:51:16.811Z,96836.31
2023-03-11T06:53:43.229Z,96838.63
2023-03-11T06:56:10.346Z,96846.09
2023-03-11T06:58:43.102Z,96849.31
2023-03-11T07:01:11.746Z,96858.84
2023-03-11T07:03:38.512Z,96853.84
2023-03-11T07:06:06.716Z,96866.19
2023-03-11T07:08:33.634Z,96866.69
2023-03-11T07:11:00.111Z,96872.34
2023-03-11T07:13:28.372Z,96869.53
2023-03-11T07:15:54.816Z,96878.34
2023-03-11T07:18:21.192Z,96886.38
2023-03-11T07:20:47.584Z,96886.72
2023-03-11T07:23:14.521Z,96886.63
2023-03-11T07:25:40.913Z,96881.91
2023-03-11T07:28:07.270Z,96889.00
2023-03-11T07:30:33.580Z,96899.38
2023-03-11T07:32:59.964Z,96895.81
2023-03-11T07:35:26.364Z,96902.84
2023-03-11T07:37:52.724Z,96908.16
2023-03-11T07:40:19.050Z,96907.25
2023-03-11T07:42:45.412Z,96911.78
2023-03-11T07:45:11.734Z,96922.16
2023-03-11T07:47:38.107Z,96921.59
2023-03-11T07:50:04.493Z,96924.53
2023-03-11T07:52:30.810Z,96929.38
2023-03-11T07:54:57.123Z,96928.75
2023-03-11T07:57:23.513Z,96932.81
2023-03-11T07:59:49.852Z,96937.78
2023-03-11T08:02:16.210Z,96939.22
2023-03-11T08:04:42.609Z,96940.69
2023-03-11T08:07:08.938Z,96948.34
2023-03-11T08:09:35.258Z,96950.19
2023-03-11T08:12:01.951Z,96953.56
2023-03-11T08:14:28.399Z,96960.09
2023-03-11T08:16:54.717Z,96966.63
2023-03-11T08:19:21.078Z,96971.59
2023-03-11T08:21:47.412Z,96971.59
2023-03-11T08:24:13.732Z,96987.22
2023-03-11T08:26:40.118Z,96991.84
2023-03-11T08:29:06.445Z,97003.00
2023-03-11T08:31:32.868Z,97008.75
2023-03-11T08:33:59.270Z,97018.22
2023-03-11T08:36:25.635Z,97026.66
2023-03-11T08:38:52.035Z,97030.81
2023-03-11T08:41:18.475Z,97036.09
2023-03-11T08:43:44.782Z,97043.44
2023-03-11T08:46:11.304Z,97056.03
2023-03-11T08:48:37.672Z,97063.69
2023-03-11T08:51:04.013Z,97061.31
2023-03-11T08:53:30.346Z,97064.38
2023-03-11T08:55:56.739Z,97068.16
2023-03-11T08:58:23.048Z,97075.84
2023-03-11T09:00:49.373Z,97083.78
2023-03-11T09:03:15.757Z,97090.31
2023-03-11T09:05:42.110Z,97091.44
2023-03-11T09:08:08.483Z,97093.69
2023-03-11T09:10:34.858Z,97097.06
2023-03-11T09:13:01.191Z,97110.91
2023-03-11T09:15:27.533Z,97106.97
2023-03-11T09:17:53.918Z,97126.19
2023-03-11T09:20:20.237Z,97130.69
2023-03-11T09:22:46.546Z,97145.28
2023-03-11T09:25:12.920Z,97134.84
2023-03-11T09:27:39.289Z,97147.09
2023-03-11T09:30:05.588Z,97152.03
2023-03-11T09:32:32.033Z,97153.47
2023-03-11T09:34:58.448Z,97161.91
2023-03-11T09:37:24.771Z,97163.72
2023-03-11T09:39:51.147Z,97177.53
2023-03-11T09:42:17.461Z,97187.56
2023-03-11T09:44:43.976Z,97188.69
2023-03-11T09:47:10.356Z,97185.03
2023-03-11T09:49:36.668Z,97207.78
2023-03-11T09:52:02.981Z,97212.69
2023-03-11T09:54:29.404Z,97226.53
2023-03-11T09:56:55.732Z,97233.38
2023-03-11T09:59:22.076Z,97239.88
2023-03-11T10:01:48.499Z,97249.91
2023-03-11T10:04:14.886Z,97256.44
2023-03-11T10:06:41.212Z,97264.84
2023-03-11T10:09:07.596Z,97279.81
2023-03-11T10:11:35.051Z,97273.59
2023-03-11T10:14:01.378Z,97292.81
2023-03-11T10:16:27.799Z,97285.03
2023-03-11T10:18:54.224Z,97293.47
2023-03-11T10:21:20.552Z,97300.63
2023-03-11T10:23:46.941Z,97302.53
2023-03-11T10:26:13.275Z,97308.94
2023-03-11T10:28:39.629Z,97311.94
2023-03-11T10:31:05.977Z,97315.28
2023-03-11T10:33:32.292Z,97331.47
2023-03-11T10:35:58.668Z,97330.69
2023-03-11T10:38:25.126Z,97333.06
2023-03-11T10:40:51.469Z,97346.25
2023-03-11T10:43:17.798Z,97357.03
2023-03-11T10:45:44.186Z,97357.81
2023-03-11T10:48:10.545Z,97367.03
2023-03-11T10:50:36.953Z,97361.94
2023-03-11T10:53:03.320Z,97380.41
2023-03-11T10:55:29.644Z,97387.22
2023-03-11T10:57:55.961Z,97402.28
2023-03-11T11:00:22.322Z,97392.13
2023-03-11T11:02:48.647Z,97413.25
2023-03-11T11:05:15.018Z,97420.25
2023-03-11T11:07:41.387Z,97418.34
2023-03-11T11:10:07.717Z,97422.16
2023-03-11T11:12:34.049Z,97432.13
2023-03-11T11:15:00.428Z,97435.97
2023-03-11T11:17:26.775Z,97439.78
2023-03-11T11:19:53.120Z,97442.78
2023-03-11T11:22:19.498Z,97452.66
2023-03-11T11:24:45.813Z,97460.25
2023-03-11T11:27:12.124Z,97476.44
2023-03-11T11:29:38.553Z,97474.88
2023-03-11T11:32:04.888Z,97474.09
2023-03-11T11:34:31.239Z,97475.16
2023-03-11T11:36:57.623Z,97485.19
2023-03-11T11:39:23.938Z,97478.50
2023-03-11T11:41:50.238Z,97491.50
2023-03-11T11:44:16.568Z,97489.94
2023-03-11T11:46:42.910Z,97502.94
2023-03-11T11:49:09.216Z,97505.81
2023-03-11T11:51:35.594Z,97505.34
2023-03-11T11:54:01.941Z,97501.84
2023-03-11T11:56:28.281Z,97507.88
2023-03-11T11:58:54.723Z,97514.69
2023-03-11T12:01:21.075Z,97517.41
2023-03-11T12:03:47.442Z,97517.69
2023-03-11T12:06:13.920Z,97523.44
2023-03-11T12:08:40.314Z,97531.03
2023-03-11T12:11:06.648Z,97535.47
2023-03-11T12:13:33.007Z,97551.97
2023-03-11T12:15:59.461Z,97547.97
2023-03-11T12:18:25.807Z,97555.13
2023-03-11T12:20:52.159Z,97566.25
2023-03-11T12:23:18.467Z,97563.34
2023-03-11T12:25:44.785Z,97579.06
2023-03-11T12:28:11.167Z,97583.97
2023-03-11T12:30:37.488Z,97580.78
2023-03-11T12:33:03.798Z,97585.72
2023-03-11T12:35:30.241Z,97592.19
2023-03-11T12:37:56.678Z,97601.41
2023-03-11T12:40:22.999Z,97601.25
2023-03-11T12:42:49.372Z,97598.53
2023-03-11T12:45:15.710Z,97592.34
2023-03-11T12:47:42.058Z,97596.78
2023-03-11T12:50:08.457Z,97605.66
2023-03-11T12:52:34.771Z,97596.25
2023-03-11T12:55:01.108Z,97611.97
2023-03-11T12:57:27.563Z,97615.91
2023-03-11T12:59:53.880Z,97618.91
2023-03-11T13:02:20.192Z,97628.09
2023-03-11T13:04:46.612Z,97629.19
2023-03-11T13:07:12.933Z,97632.69
2023-03-11T13:09:39.252Z,97638.09
2023-03-11T13:12:05.656Z,97639.16
2023-03-11T13:14:32.029Z,97637.25
2023-03-11T13:16:58.359Z,97650.72
2023-03-11T13:19:24.788Z,97657.56
2023-03-11T13:21:51.114Z,97664.81
2023-03-11T13:24:17.416Z,97666.72
2023-03-11T13:26:43.791Z,97682.09
2023-03-11T13:29:10.096Z,97675.94
2023-03-11T13:31:36.456Z,97670.53
2023-03-11T13:34:02.818Z,97682.91
2023-03-11T13:36:29.143Z,97689.69
2023-03-11T13:38:55.469Z,97698.09
2023-03-11T13:41:21.837Z,97695.69
2023-03-11T13:43:48.209Z,97709.50
2023-03-11T13:46:14.608Z,97703.63
2023-03-11T13:48:41.002Z,97712.47
2023-03-11T13:51:07.328Z,97714.38
2023-03-11T13:53:33.643Z,97724.38
2023-03-11T13:56:00.026Z,97730.06
2023-03-11T13:58:26.379Z,97733.88
2023-03-11T14:00:52.734Z,97735.75
2023-03-11T14:03:19.144Z,97728.47
2023-03-11T14:05:45.486Z,97736.88
2023-03-11T14:08:11.800Z,97740.38
2023-03-11T14:10:38.157Z,97747.16
2023-03-11T14:13:04.472Z,97759.84
2023-03-11T14:15:30.790Z,97749.34
2023-03-11T14:17:57.152Z,97762.03
2023-03-11T14:20:23.564Z,97761.53
2023-03-11T14:22:49.930Z,97777.22
2023-03-11T14:25:16.347Z,97789.88
2023-03-11T14:27:42.676Z,97787.50
2023-03-11T14:30:09.002Z,97800.97
2023-03-11T14:32:35.403Z,97802.53
2023-03-11T14:35:01.863Z,97796.38
2023-03-11T14:37:28.200Z,97796.69
2023-03-11T14:39:54.565Z,97801.56
2023-03-11T14:42:20.905Z,97814.25
2023-03-11T14:44:47.246Z,97816.16
2023-03-11T14:47:13.648Z,97819.13
2023-03-11T14:49:40.021Z,97830.22
2023-03-11T14:52:06.359Z,97827.53
2023-03-11T14:54:32.754Z,97841.00
2023-03-11T14:56:59.063Z,97840.00
2023-03-11T14:59:25.403Z,97845.69
2023-03-11T15:01:51.764Z,97841.38
2023-03-11T15:04:18.066Z,97849.78
2023-03-11T15:06:44.382Z,97849.00
2023-03-11T15:09:10.773Z,97862.75
2023-03-11T15:11:37.138Z,97859.88
2023-03-11T15:14:03.460Z,97862.84
2023-03-11T15:16:29.912Z,97875.84
2023-03-11T15:18:56.280Z,97887.38
2023-03-11T15:21:22.598Z,97889.59
2023-03-11T15:23:49.007Z,97895.28
2023-03-11T15:26:15.334Z,97893.19
2023-03-11T15:28:41.636Z,97898.06
2023-03-11T15:31:08.107Z,97902.16
2023-03-11T15:33:34.470Z,97908.94
2023-03-11T15:36:00.813Z,97907.34
2023-03-11T15:38:27.187Z,97904.94
2023-03-11T15:40:53.504Z,97916.03
2023-03-11T15:43:19.829Z,97913.63
2023-03-11T15:45:46.274Z,97917.91
2023-03-11T15:48:12.703Z,97936.44
2023-03-11T15:50:52.452Z,97931.06
2023-03-11T15:53:19.532Z,97940.25
2023-03-11T15:55:45.855Z,97940.25
2023-03-11T15:58:12.163Z,97955.09
2023-03-11T16:00:38.524Z,97965.06
2023-03-11T16:03:04.836Z,97952.41
2023-03-11T16:05:31.214Z,97962.66
2023-03-11T16:07:57.625Z,97964.88
2023-03-11T16:10:23.931Z,97975.63
2023-03-11T16:12:50.256Z,97969.75
2023-03-11T16:15:16.615Z,97978.59
2023-03-11T16:17:49.645Z,97989.38
2023-03-11T16:20:16.301Z,98002.03
2023-03-11T16:22:42.688Z,97991.56
2023-03-11T16:25:09.004Z,98001.53
2023-03-11T16:27:35.332Z,98004.22
2023-03-11T16:30:01.696Z,98012.59
2023-03-11T16:32:28.067Z,98032.81
2023-03-11T16:34:54.406Z,98033.69
2023-03-11T16:37:20.850Z,98062.31
2023-03-11T16:39:47.193Z,98052.59
2023-03-11T16:42:13.522Z,98057.72
2023-03-11T16:44:39.873Z,98058.59
2023-03-11T16:47:06.229Z,98059.41
2023-03-11T16:49:32.524Z,98062.38
2023-03-11T16:51:58.960Z,98078.00
2023-03-11T16:54:25.305Z,98078.59
2023-03-11T16:56:51.631Z,98090.44
2023-03-11T16:59:18.000Z,98102.59
2023-03-11T17:01:44.358Z,98099.91
2023-03-11T17:04:10.723Z,98100.50
2023-03-11T17:06:37.092Z,98103.47
2023-03-11T17:09:04.774Z,98109.94
2023-03-11T17:11:31.096Z,98124.50
2023-03-11T17:14:10.135Z,98122.91
2023-03-11T17:16:42.099Z,98130.72
2023-03-11T17:19:08.460Z,98133.50
2023-03-11T17:21:34.757Z,98145.34
2023-03-11T17:24:01.089Z,98145.63
2023-03-11T17:26:27.463Z,98145.91
2023-03-11T17:28:53.780Z,98158.56
2023-03-11T17:31:20.164Z,98147.28
2023-03-11T17:33:46.571Z,98166.41
2023-03-11T17:36:12.943Z,98166.69
2023-03-11T17:38:39.327Z,98170.75
2023-03-11T17:41:05.722Z,98169.97
2023-03-11T17:43:32.041Z,98178.03
2023-03-11T17:45:58.369Z,98183.72
2023-03-11T17:48:24.735Z,98182.41
2023-03-11T17:50:51.044Z,98195.84
2023-03-11T17:53:17.346Z,98196.41
2023-03-11T17:55:43.696Z,98206.38
2023-03-11T17:58:10.006Z,98206.13
2023-03-11T18:00:36.330Z,98203.75
2023-03-11T18:03:02.709Z,98212.06
2023-03-11T18:05:29.007Z,98216.66
2023-03-11T18:07:55.315Z,98218.03
2023-03-11T18:10:21.685Z,98232.88
2023-03-11T18:12:48.008Z,98229.34
2023-03-11T18:15:14.398Z,98237.97
2023-03-11T18:17:40.803Z,98247.16
2023-03-11T18:20:07.145Z,98250.94
2023-03-11T18:22:35.248Z,98247.41
2023-03-11T18:25:01.895Z,98243.13
2023-03-11T18:27:28.228Z,98249.09
2023-03-11T18:29:54.546Z,98255.81
2023-03-11T18:32:21.043Z,98255.03
2023-03-11T18:34:47.405Z,98255.81
2023-03-11T18:37:13.720Z,98263.38
2023-03-11T18:39:40.086Z,98259.88
2023-03-11T18:42:06.406Z,98256.41
2023-03-11T18:44:33.618Z,98256.41
2023-03-11T18:47:00.731Z,98266.63
2023-03-11T18:49:27.054Z,98273.34
2023-03-11T18:51:53.382Z,98283.56
2023-03-11T18:54:19.740Z,98285.47
2023-03-11T18:56:46.061Z,98284.16
2023-03-11T18:59:12.371Z,98282.03
2023-03-11T19:01:38.983Z,98285.81
2023-03-11T19:04:05.303Z,98284.97
2023-03-11T19:06:31.634Z,98293.03
2023-03-11T19:08:58.004Z,98281.22
2023-03-11T19:11:24.336Z,98286.88
2023-03-11T19:13:50.659Z,98278.28
2023-03-11T19:16:17.190Z,98277.47
2023-03-11T19:18:43.621Z,98281.53
2023-03-11T19:21:09.966Z,98284.78
2023-03-11T19:23:36.348Z,98294.72
2023-03-11T19:26:03.700Z,98299.03
2023-03-11T19:28:30.193Z,98312.47
2023-03-11T19:30:56.702Z,98313.84
2023-03-11T19:33:23.063Z,98312.50
2023-03-11T19:35:49.442Z,98325.41
2023-03-11T19:38:15.809Z,98330.25
2023-03-11T19:40:42.112Z,98333.50
2023-03-11T19:43:08.430Z,98337.81
2023-03-11T19:45:34.797Z,98337.81
2023-03-11T19:48:01.139Z,98336.47
2023-03-11T19:50:27.506Z,98336.75
2023-03-11T19:52:53.874Z,98352.34
2023-03-11T19:55:20.197Z,98349.94
2023-03-11T19:57:46.508Z,98351.81
2023-03-11T20:00:12.950Z,98359.63
2023-03-11T20:02:39.329Z,98362.59
2023-03-11T20:05:05.745Z,98366.63
2023-03-11T20:07:32.098Z,98368.50
2023-03-11T20:09:58.431Z,98364.50
2023-03-11T20:12:24.807Z,98372.31
2023-03-11T20:14:51.241Z,98374.75
2023-03-11T20:17:17.571Z,98376.91
2023-03-11T20:19:43.926Z,98382.84
2023-03-11T20:22:10.305Z,98381.50
2023-03-11T20:24:36.712Z,98384.19
2023-03-11T20:27:03.054Z,98387.97
2023-03-11T20:29:29.493Z,98390.94
2023-03-11T20:31:55.947Z,98401.13
2023-03-11T20:34:22.334Z,98394.44
2023-03-11T20:36:48.708Z,98394.69
2023-03-11T20:39:15.038Z,98399.56
2023-03-11T20:41:41.372Z,98398.75
2023-03-11T20:44:07.885Z,98396.34
2023-03-11T20:46:34.359Z,98399.31
2023-03-11T20:49:00.835Z,98401.44
2023-03-11T20:51:27.284Z,98402.00
2023-03-11T20:53:53.600Z,98404.69
2023-03-11T20:56:19.946Z,98399.56
2023-03-11T20:58:46.434Z,98407.63
2023-03-11T21:01:12.817Z,98412.50
2023-03-11T21:03:39.248Z,98403.38
2023-03-11T21:06:05.798Z,98409.03
2023-03-11T21:08:32.228Z,98408.22
2023-03-11T21:10:58.614Z,98410.06
2023-03-11T21:13:24.982Z,98408.47
2023-03-11T21:15:51.395Z,98402.84
2023-03-11T21:18:17.735Z,98402.84
2023-03-11T21:20:44.166Z,98405.53
2023-03-11T21:23:10.560Z,98415.19
2023-03-11T21:25:36.911Z,98420.81
2023-03-11T21:28:03.284Z,98427.50
2023-03-11T21:30:29.599Z,98417.88
2023-03-11T21:32:55.979Z,98418.97
2023-03-11T21:35:22.701Z,98423.78
2023-03-11T21:37:49.060Z,98419.47
2023-03-11T21:40:15.462Z,98421.34
2023-03-11T21:42:41.881Z,98426.72
2023-03-11T21:45:08.205Z,98421.34
2023-03-11T21:47:34.513Z,98424.34
2023-03-11T21:50:01.020Z,98420.56
2023-03-11T21:52:27.521Z,98423.78
2023-03-11T21:54:53.975Z,98422.44
2023-03-11T21:57:20.561Z,98427.56
2023-03-11T21:59:46.899Z,98433.47
2023-03-11T22:02:13.412Z,98437.50
2023-03-11T22:04:39.961Z,98439.63
2023-03-11T22:07:06.433Z,98439.91
2023-03-11T22:09:32.917Z,98449.56
2023-03-11T22:11:59.350Z,98445.56
2023-03-11T22:14:25.669Z,98446.63
2023-03-11T22:16:52.203Z,98449.03
2023-03-11T22:19:18.633Z,98444.75
2023-03-11T22:21:44.947Z,98452.00
2023-03-11T22:24:11.280Z,98453.31
2023-03-11T22:26:37.664Z,98454.66
2023-03-11T22:29:04.486Z,98450.88
2023-03-11T22:31:31.085Z,98454.34
2023-03-11T22:33:57.486Z,98450.06
2023-03-11T22:36:23.809Z,98454.91
2023-03-11T22:38:50.146Z,98452.00
2023-03-11T22:41:16.496Z,98450.13
2023-03-11T22:43:42.826Z,98456.03
2023-03-11T22:46:09.187Z,98449.31
2023-03-11T22:48:35.596Z,98449.31
2023-03-11T22:51:01.906Z,98449.56
2023-03-11T22:53:28.223Z,98444.22
2023-03-11T22:55:54.573Z,98446.91
2023-03-11T22:58:20.894Z,98452.25
2023-03-11T23:00:47.234Z,98451.75
2023-03-11T23:03:13.682Z,98452.28
2023-03-11T23:05:40.059Z,98454.69
2023-03-11T23:08:06.501Z,98464.63
2023-03-11T23:10:32.881Z,98458.47
2023-03-11T23:12:59.183Z,98436.50
2023-03-11T23:15:25.525Z,98455.22
2023-03-11T23:17:51.874Z,98454.72
2023-03-11T23:20:18.193Z,98463.28
2023-03-11T23:22:44.578Z,98459.78
2023-03-11T23:25:10.913Z,98461.69
2023-03-11T23:27:37.208Z,98463.31
2023-03-11T23:30:03.546Z,98471.34
2023-03-11T23:32:29.933Z,98473.22
2023-03-11T23:34:56.266Z,98476.97
2023-03-11T23:37:22.650Z,98478.06
2023-03-11T23:39:49.008Z,98495.22
2023-03-11T23:42:25.372Z,98488.75
2023-03-11T23:44:52.642Z,98490.91
2023-03-11T23:47:19.003Z,98491.19
2023-03-11T23:49:45.312Z,98505.13
2023-03-11T23:52:11.688Z,98506.22
2023-03-11T23:54:38.006Z,98509.16
2023-03-11T23:57:04.326Z,98510.50
2023-03-11T23:59:30.706Z,98513.72
